Terminal Aerodrome Forecast
Issued by NWS

Home | Current Version | Previous Version | Text Only | Print | Product List | Glossary On
Versions: 1 2 3 4 5 6 7 8 9 10 11 12 13 14 15 16 17 18 19 20 21 22 23 24 25 26 27 28 29 30 31
401
FTUS41 KOKX 260533
TAFSWF
TAF
KSWF 260533Z 2606/2712 VRB03KT 2SM BR OVC004
     FM260800 VRB04KT 4SM BR SCT005 OVC040
     FM261000 28008KT P6SM SCT250
     FM261300 29014G22KT P6SM FEW250
     FM262200 30011KT P6SM SKC
     FM270100 VRB04KT P6SM SKC
      AMD NOT SKED=

USA.gov is the U.S. government's official web portal to all federal, state and local government web resources and services.